Thunder radar more information blitzortung!


Rain radar  rain snow radar



Ingen spesiell oppmerksomhet nødvendig.    Det er ingen advarsler

Nearby METAR Reports

   
ENZV - Stavanger
Oppdatert: Apr 9 2020 3:20 pm
For det meste Overskyet  
For det meste Overskyet  
   Vind: NV 9.3 m/s
Vind: NV 9.3 m/s
Temperatur: 7°C
Wind Chill: 2°C
Duggpunkt: -3°C
Luftfuktighet: 49%
Barometer: 1028 hPa
Skyer: Mostly Cloudy
Sikt: More than 10 km
Detaljer skyer: Noen skyer 4000 ft,
For det meste Overskyet 5000 ft
ENZV 091320Z 32018KT 9999 FEW040 BKN050 07/M03 Q1028 NOSIG
ENCN - Kristiansand
Oppdatert: Apr 9 2020 3:20 pm
Klart  
Klart  
   Vind: NV 7.2 m/s
Vind: NV 7.2 m/s
Temperatur: 10°C
Wind Chill: 7°C
Duggpunkt: -5°C
Luftfuktighet: 35%
Barometer: 1024 hPa
Skyer: Clear
Sikt: More than 10 km
Detaljer skyer: Klart ft
ENCN 091320Z AUTO 31014KT 9999 NCD 10/M05 Q1024
ENBR - Bergen
Oppdatert: Apr 9 2020 3:20 pm
For det meste Overskyet  
For det meste Overskyet  
   Vind: NNV 4.1 m/s
Vind: NNV 4.1 m/s
Temperatur: 4°C
Wind Chill: 1°C
Duggpunkt: -2°C
Luftfuktighet: 65%
Barometer: 1028 hPa
Skyer: Mostly Cloudy
Sikt: More than 10 km
Detaljer skyer: Delvis overskyet 3000 ft,
For det meste Overskyet 5000 ft
ENBR 091320Z 33008KT 9999 SCT030 BKN050 04/M02 Q1028 NOSIG RMK WIND 1200FT 33013KT
ENGM - Oslo
Oppdatert: Apr 9 2020 3:20 pm
Klart  
Klart  
   Vind: NNØ 3.6 m/s
Vind: NNØ 3.6 m/s
Temperatur: 8°C
Wind Chill: 6°C
Duggpunkt: -8°C
Luftfuktighet: 32%
Barometer: 1020 hPa
Sikt: More than 10 km
Detaljer skyer: Klart ft
ENGM 091320Z 03007KT CAVOK 08/M08 Q1020 NOSIG
ENVA - Trondheim
Oppdatert: Apr 9 2020 3:20 pm
Lokale byger, For det meste Overskyet  
Lokale byger, For det meste Overskyet  
   Vind: NV 7.7 m/s<br />Gust to 7.7 m/s
Vind: NV 7.7 m/s
Gust to 7.7 m/s
Temperatur: 3°C
Wind Chill: -2°C
Duggpunkt: 1°C
Luftfuktighet: 87%
Barometer: 1019 hPa
Skyer: Mostly Cloudy
Sikt: More than 10 km
Detaljer skyer: Noen skyer 900 ft,
Delvis overskyet 1700 ft,
For det meste Overskyet 2200 ft
ENVA 091320Z 32015G27KT 9999 VCSH FEW009 SCT017 BKN022 03/01 Q1019 TEMPO 1500 SHSNRA VV008 RMK WIND 670FT 33022G34KT
ENTC - Tromsø
Oppdatert: Apr 9 2020 3:20 pm
Delvis overskyet  
Delvis overskyet  
   Vind: NNV 3.1 m/s
Vind: NNV 3.1 m/s
Temperatur: -2°C
Wind Chill: -6°C
Duggpunkt: -9°C
Luftfuktighet: 59%
Barometer: 1011 hPa
Skyer: Partly Cloudy
Sikt: More than 10 km
Detaljer skyer: Delvis overskyet 5100 ft
ENTC 091320Z 34006KT 300V050 9999 SCT051 M02/M09 Q1011 NOSIG RMK WIND 2600FT /////KT

Script utviklet av  Saratoga-weather.org Tilpasset for tamplaten av  Weerstation Leuven

Du finner vår vær info også på:

European Weather Network

WeatherCloud

Weather Underground

AWEKAS

HAMweather, WeatherForYou, PWS Weather

Utrustning vi bruker:

vær-station
Davis VP2

vær-programmet
Weather Display

Davis VP2

Weather Display